createdAt,value
2022-12-22T00:02:36.856Z,14.80
2022-12-22T00:05:44.417Z,14.80
2022-12-22T00:08:50.737Z,14.70
2022-12-22T00:11:56.929Z,14.70
2022-12-22T00:15:02.811Z,14.70
2022-12-22T00:18:08.716Z,14.70
2022-12-22T00:21:16.173Z,14.70
2022-12-22T00:24:22.673Z,14.70
2022-12-22T00:27:32.790Z,14.70
2022-12-22T00:30:38.702Z,14.70
2022-12-22T00:33:44.489Z,14.70
2022-12-22T00:36:51.593Z,14.70
2022-12-22T00:39:58.296Z,14.70
2022-12-22T00:43:04.391Z,14.70
2022-12-22T00:46:10.329Z,14.70
2022-12-22T00:49:16.587Z,14.60
2022-12-22T00:52:23.884Z,14.60
2022-12-22T00:55:33.516Z,14.60
2022-12-22T00:58:39.601Z,14.60
2022-12-22T01:01:45.647Z,14.60
2022-12-22T01:04:51.827Z,14.60
2022-12-22T01:07:59.097Z,14.50
2022-12-22T01:11:04.864Z,14.50
2022-12-22T01:14:11.084Z,14.50
2022-12-22T01:17:17.290Z,14.50
2022-12-22T01:20:25.252Z,14.50
2022-12-22T01:23:34.013Z,14.50
2022-12-22T01:26:40.173Z,14.50
2022-12-22T01:29:46.321Z,14.50
2022-12-22T01:32:52.249Z,14.40
2022-12-22T01:35:58.309Z,14.50
2022-12-22T01:39:05.539Z,14.40
2022-12-22T01:42:11.471Z,14.40
2022-12-22T01:45:19.223Z,14.40
2022-12-22T01:48:29.422Z,14.40
2022-12-22T01:51:39.249Z,14.40
2022-12-22T01:54:46.455Z,14.30
2022-12-22T01:57:52.326Z,14.30
2022-12-22T02:00:58.084Z,14.30
2022-12-22T02:04:03.991Z,14.30
2022-12-22T02:07:09.851Z,14.30
2022-12-22T02:10:23.899Z,14.30
2022-12-22T02:13:38.329Z,14.30
2022-12-22T02:16:48.348Z,14.30
2022-12-22T02:20:22.116Z,14.30
2022-12-22T02:23:32.265Z,14.30
2022-12-22T02:26:43.762Z,14.30
2022-12-22T02:29:52.113Z,14.20
2022-12-22T02:33:06.949Z,14.30
2022-12-22T02:36:20.596Z,14.20
2022-12-22T02:39:30.346Z,14.20
2022-12-22T02:42:44.030Z,14.20
2022-12-22T02:45:56.319Z,14.20
2022-12-22T02:49:05.389Z,14.20
2022-12-22T02:52:24.422Z,14.20
2022-12-22T02:55:30.376Z,14.20
2022-12-22T02:58:37.752Z,14.20
2022-12-22T03:01:43.729Z,14.20
2022-12-22T03:04:49.566Z,14.20
2022-12-22T03:07:55.696Z,14.20
2022-12-22T03:11:01.795Z,14.20
2022-12-22T03:14:09.231Z,14.20
2022-12-22T03:17:15.330Z,14.10
2022-12-22T03:20:21.309Z,14.20
2022-12-22T03:23:27.437Z,14.20
2022-12-22T03:26:15.870Z,14.10
2022-12-22T03:29:05.642Z,14.20
2022-12-22T03:31:54.312Z,14.20
2022-12-22T03:34:42.771Z,14.20
2022-12-22T03:37:31.163Z,14.20
2022-12-22T03:40:19.668Z,14.20
2022-12-22T03:43:25.676Z,14.30
2022-12-22T03:46:31.471Z,14.20
2022-12-22T03:49:22.305Z,14.30
2022-12-22T03:52:10.680Z,14.30
2022-12-22T03:54:59.049Z,14.30
2022-12-22T03:57:47.465Z,14.30
2022-12-22T04:00:35.892Z,14.30
2022-12-22T04:03:25.700Z,14.30
2022-12-22T04:06:14.143Z,14.40
2022-12-22T04:09:04.702Z,14.40
2022-12-22T04:12:10.879Z,14.40
2022-12-22T04:14:59.284Z,14.40
2022-12-22T04:17:47.671Z,14.40
2022-12-22T04:20:37.438Z,14.40
2022-12-22T04:23:25.875Z,14.40
2022-12-22T04:26:14.237Z,14.40
2022-12-22T04:29:02.789Z,14.50
2022-12-22T04:31:51.302Z,14.50
2022-12-22T04:34:39.741Z,14.50
2022-12-22T04:37:29.484Z,14.50
2022-12-22T04:40:18.047Z,14.50
2022-12-22T04:43:06.862Z,14.50
2022-12-22T04:45:57.219Z,14.50
2022-12-22T04:48:45.628Z,14.50
2022-12-22T04:51:34.012Z,14.50
2022-12-22T04:54:23.731Z,14.50
2022-12-22T04:57:12.254Z,14.50
2022-12-22T05:00:00.620Z,14.50
2022-12-22T05:02:49.152Z,14.50
2022-12-22T05:05:37.772Z,14.50
2022-12-22T05:08:26.174Z,14.50
2022-12-22T05:11:15.898Z,14.40
2022-12-22T05:14:07.437Z,14.40
2022-12-22T05:16:56.020Z,14.40
2022-12-22T05:19:44.478Z,14.40
2022-12-22T05:22:32.872Z,14.40
2022-12-22T05:25:21.849Z,14.40
2022-12-22T05:28:11.556Z,14.30
2022-12-22T05:31:05.000Z,14.30
2022-12-22T05:33:53.563Z,14.30
2022-12-22T05:36:41.966Z,14.30
2022-12-22T05:39:30.433Z,14.20
2022-12-22T05:42:35.639Z,14.20
2022-12-22T05:45:25.490Z,14.30
2022-12-22T05:48:14.010Z,14.20
2022-12-22T05:51:02.589Z,14.20
2022-12-22T05:53:51.022Z,14.20
2022-12-22T05:56:39.537Z,14.20
2022-12-22T05:59:27.918Z,14.20
2022-12-22T06:02:17.908Z,14.20
2022-12-22T06:05:07.643Z,14.30
2022-12-22T06:07:56.035Z,14.20
2022-12-22T06:10:44.424Z,14.20
2022-12-22T06:13:32.799Z,14.20
2022-12-22T06:16:21.309Z,14.20
2022-12-22T06:19:11.057Z,14.20
2022-12-22T06:21:59.458Z,14.30
2022-12-22T06:24:47.843Z,14.30
2022-12-22T06:27:36.420Z,14.30
2022-12-22T06:30:32.695Z,14.30
2022-12-22T06:33:21.941Z,14.40
2022-12-22T06:36:12.351Z,14.40
2022-12-22T06:39:00.745Z,14.40
2022-12-22T06:42:06.959Z,14.40
2022-12-22T06:44:55.544Z,14.40
2022-12-22T06:47:44.025Z,14.50
2022-12-22T06:50:32.438Z,14.50
2022-12-22T06:53:22.151Z,14.50
2022-12-22T06:56:10.545Z,14.50
2022-12-22T06:58:58.919Z,14.50
2022-12-22T07:01:47.444Z,14.50
2022-12-22T07:04:19.681Z,14.50
2022-12-22T07:06:47.943Z,14.50
2022-12-22T07:09:17.391Z,14.50
2022-12-22T07:11:45.901Z,14.50
2022-12-22T07:14:14.079Z,14.50
2022-12-22T07:16:42.342Z,14.50
2022-12-22T07:19:10.627Z,14.50
2022-12-22T07:21:39.098Z,14.50
2022-12-22T07:24:08.368Z,14.50
2022-12-22T07:26:37.917Z,14.50
2022-12-22T07:29:06.119Z,14.50
2022-12-22T07:31:34.286Z,14.50
2022-12-22T07:34:02.472Z,14.50
2022-12-22T07:36:30.631Z,14.40
2022-12-22T07:38:58.785Z,14.50
2022-12-22T07:41:44.384Z,14.50
2022-12-22T07:44:14.241Z,14.50
2022-12-22T07:46:42.417Z,14.50
2022-12-22T07:49:29.183Z,14.50
2022-12-22T07:51:57.880Z,14.50
2022-12-22T07:54:26.313Z,14.50
2022-12-22T07:56:54.705Z,14.60
2022-12-22T07:59:24.172Z,14.50
2022-12-22T08:01:52.390Z,14.50
2022-12-22T08:04:21.910Z,14.60
2022-12-22T08:06:50.046Z,14.60
2022-12-22T08:09:21.457Z,14.60
2022-12-22T08:11:50.254Z,14.70
2022-12-22T08:14:18.407Z,14.70
2022-12-22T08:16:47.969Z,14.80
2022-12-22T08:19:16.190Z,14.80
2022-12-22T08:21:52.194Z,14.80
2022-12-22T08:24:21.340Z,14.90
2022-12-22T08:26:51.234Z,14.90
2022-12-22T08:29:20.875Z,14.90
2022-12-22T08:31:50.370Z,14.90
2022-12-22T08:34:18.671Z,14.90
2022-12-22T08:36:50.372Z,14.90
2022-12-22T08:39:18.522Z,14.90
2022-12-22T08:41:52.628Z,14.90
2022-12-22T08:44:23.566Z,14.90
2022-12-22T08:46:56.551Z,14.90
2022-12-22T08:49:24.730Z,14.90
2022-12-22T08:51:52.937Z,14.90
2022-12-22T08:54:21.144Z,14.90
2022-12-22T08:56:49.510Z,15.00
2022-12-22T08:59:17.767Z,14.90
2022-12-22T09:01:50.299Z,15.00
2022-12-22T09:04:21.335Z,15.00
2022-12-22T09:06:49.928Z,15.00
2022-12-22T09:09:18.309Z,15.10
2022-12-22T09:11:46.504Z,15.00
2022-12-22T09:14:14.731Z,15.10
2022-12-22T09:16:42.971Z,15.10
2022-12-22T09:19:11.344Z,15.10
2022-12-22T09:21:40.826Z,15.10
2022-12-22T09:24:09.762Z,15.10
2022-12-22T09:26:37.852Z,15.10
2022-12-22T09:29:06.099Z,15.10
2022-12-22T09:31:34.520Z,15.10
2022-12-22T09:34:02.773Z,15.10
2022-12-22T09:36:33.640Z,15.10
2022-12-22T09:39:07.130Z,15.10
2022-12-22T09:41:37.931Z,15.10
2022-12-22T09:44:07.282Z,15.00
2022-12-22T09:46:36.768Z,15.00
2022-12-22T09:49:06.237Z,15.10
2022-12-22T09:51:35.017Z,15.00
2022-12-22T09:54:03.159Z,15.00
2022-12-22T09:56:32.682Z,15.00
2022-12-22T09:59:00.856Z,15.00
2022-12-22T10:01:40.497Z,14.90
2022-12-22T10:04:15.434Z,14.90
2022-12-22T10:06:52.565Z,14.90
2022-12-22T10:09:48.301Z,14.90
2022-12-22T10:12:17.711Z,14.90
2022-12-22T10:14:48.309Z,14.90
2022-12-22T10:17:21.924Z,14.90
2022-12-22T10:19:51.672Z,14.90
2022-12-22T10:22:28.310Z,14.80
2022-12-22T10:24:56.701Z,14.80
2022-12-22T10:27:29.393Z,14.70
2022-12-22T10:30:19.594Z,14.60
2022-12-22T10:33:04.527Z,14.60
2022-12-22T10:35:50.627Z,14.60
2022-12-22T10:38:26.034Z,14.60
2022-12-22T10:41:01.908Z,14.60
2022-12-22T10:43:34.106Z,14.60
2022-12-22T10:46:02.322Z,14.60
2022-12-22T10:48:32.221Z,14.60
2022-12-22T10:51:00.814Z,14.60
2022-12-22T10:53:48.131Z,14.60
2022-12-22T10:56:25.530Z,14.60
2022-12-22T10:58:56.431Z,14.60
2022-12-22T11:01:27.665Z,14.60
2022-12-22T11:03:56.048Z,14.60
2022-12-22T11:06:24.277Z,14.60
2022-12-22T11:08:52.404Z,14.70
2022-12-22T11:11:33.416Z,14.70
2022-12-22T11:14:13.824Z,14.70
2022-12-22T11:16:47.763Z,14.70
2022-12-22T11:19:31.302Z,14.70
2022-12-22T11:22:02.931Z,14.70
2022-12-22T11:24:37.042Z,14.70
2022-12-22T11:27:17.712Z,14.80
2022-12-22T11:30:13.689Z,14.80
2022-12-22T11:33:07.931Z,14.80
2022-12-22T11:35:48.846Z,14.80
2022-12-22T11:38:25.774Z,14.80
2022-12-22T11:40:59.600Z,14.90
2022-12-22T11:43:31.945Z,14.90
2022-12-22T11:46:15.979Z,14.90
2022-12-22T11:49:18.301Z,14.90
2022-12-22T11:52:07.801Z,14.90
2022-12-22T11:55:04.699Z,14.80
2022-12-22T11:57:37.049Z,14.90
2022-12-22T12:00:09.548Z,14.90
2022-12-22T12:03:21.639Z,14.90
2022-12-22T12:06:16.348Z,14.90
2022-12-22T12:08:56.571Z,14.90
2022-12-22T12:11:28.832Z,14.90
2022-12-22T12:14:03.629Z,14.90
2022-12-22T12:16:37.770Z,14.90
2022-12-22T12:19:28.460Z,14.90
2022-12-22T12:21:58.624Z,14.90
2022-12-22T12:24:43.541Z,14.90
2022-12-22T12:27:18.844Z,14.90
2022-12-22T12:30:13.448Z,15.00
2022-12-22T12:32:42.412Z,14.90
2022-12-22T12:35:44.933Z,14.90
2022-12-22T12:38:47.859Z,14.90
2022-12-22T12:41:11.988Z,14.90
2022-12-22T12:43:40.325Z,14.70
2022-12-22T12:46:53.818Z,14.80
2022-12-22T12:50:20.237Z,14.80
2022-12-22T12:53:17.072Z,14.90
2022-12-22T12:56:03.151Z,14.90
2022-12-22T12:58:54.329Z,14.90
2022-12-22T13:02:00.206Z,14.90
2022-12-22T13:05:26.338Z,14.80
2022-12-22T13:08:19.959Z,14.80
2022-12-22T13:12:01.152Z,14.80
2022-12-22T13:14:12.790Z,14.80
2022-12-22T13:16:41.285Z,14.80
2022-12-22T13:19:22.308Z,14.80
2022-12-22T13:21:53.336Z,14.80
2022-12-22T13:24:30.740Z,14.80
2022-12-22T13:27:04.747Z,14.80
2022-12-22T13:29:46.696Z,14.80
2022-12-22T13:32:24.845Z,14.80
2022-12-22T13:37:54.928Z,14.80
2022-12-22T13:40:25.683Z,14.90
2022-12-22T13:42:55.294Z,14.90
2022-12-22T13:45:39.784Z,14.90
2022-12-22T13:48:14.980Z,14.90
2022-12-22T13:50:45.799Z,14.90
2022-12-22T13:53:42.275Z,14.90
2022-12-22T13:56:10.014Z,14.90
2022-12-22T13:58:40.101Z,14.90
2022-12-22T14:01:17.961Z,14.90
2022-12-22T14:04:00.847Z,14.90
2022-12-22T14:06:31.336Z,15.00
2022-12-22T14:09:13.896Z,15.00
2022-12-22T14:11:51.191Z,15.00
2022-12-22T14:14:26.483Z,15.00
2022-12-22T14:16:57.028Z,15.00
2022-12-22T14:19:25.792Z,14.90
2022-12-22T14:22:03.746Z,15.00
2022-12-22T14:24:38.271Z,15.00
2022-12-22T14:27:08.463Z,15.00
2022-12-22T14:29:36.577Z,15.00
2022-12-22T14:32:05.187Z,15.00
2022-12-22T14:34:34.693Z,15.00
2022-12-22T14:37:03.249Z,15.10
2022-12-22T14:39:32.608Z,15.10
2022-12-22T14:42:02.673Z,15.10
2022-12-22T14:44:34.209Z,15.00
2022-12-22T14:47:14.936Z,15.00
2022-12-22T14:49:51.481Z,15.10
2022-12-22T14:52:24.087Z,15.10
2022-12-22T14:54:53.085Z,15.10
2022-12-22T14:57:28.939Z,15.10
2022-12-22T15:00:05.185Z,15.10
2022-12-22T15:02:39.034Z,15.10
2022-12-22T15:05:11.298Z,15.10
2022-12-22T15:08:05.199Z,15.10
2022-12-22T15:10:40.789Z,15.20
2022-12-22T15:13:14.274Z,15.20
2022-12-22T15:15:43.954Z,15.20
2022-12-22T15:18:14.192Z,15.20
2022-12-22T15:20:42.341Z,15.20
2022-12-22T15:23:14.017Z,15.20
2022-12-22T15:25:42.151Z,15.20
2022-12-22T15:28:10.396Z,15.20
2022-12-22T15:30:38.586Z,15.20
2022-12-22T15:33:13.137Z,15.20
2022-12-22T15:35:41.314Z,15.20
2022-12-22T15:38:13.127Z,15.20
2022-12-22T15:40:41.300Z,15.20
2022-12-22T15:43:22.212Z,15.20
2022-12-22T15:45:57.368Z,15.20
2022-12-22T15:48:28.479Z,15.20
2022-12-22T15:50:56.696Z,15.10
2022-12-22T15:53:24.805Z,15.10
2022-12-22T15:55:54.627Z,15.10
2022-12-22T15:58:24.877Z,15.00
2022-12-22T16:00:53.118Z,15.00
2022-12-22T16:03:21.535Z,15.00
2022-12-22T16:05:52.644Z,14.90
2022-12-22T16:08:26.290Z,14.90
2022-12-22T16:10:54.453Z,14.80
2022-12-22T16:13:25.138Z,14.80
2022-12-22T16:15:53.286Z,14.70
2022-12-22T16:18:21.435Z,14.70
2022-12-22T16:20:51.121Z,14.60
2022-12-22T16:23:21.306Z,14.60
2022-12-22T16:25:50.875Z,14.50
2022-12-22T16:28:22.781Z,14.50
2022-12-22T16:30:51.151Z,14.50
2022-12-22T16:33:19.478Z,14.40
2022-12-22T16:35:47.651Z,14.50
2022-12-22T16:38:19.315Z,14.40
2022-12-22T16:40:48.708Z,14.50
2022-12-22T16:46:07.225Z,14.50
2022-12-22T16:48:42.317Z,14.50
2022-12-22T16:51:12.160Z,14.50
2022-12-22T16:53:41.648Z,14.50
2022-12-22T16:56:14.528Z,14.50
2022-12-22T16:58:42.647Z,14.50
2022-12-22T17:01:17.293Z,14.50
2022-12-22T17:03:45.582Z,14.50
2022-12-22T17:06:13.923Z,14.50
2022-12-22T17:08:43.545Z,14.50
2022-12-22T17:11:19.852Z,14.50
2022-12-22T17:13:48.076Z,14.50
2022-12-22T17:16:20.447Z,14.50
2022-12-22T17:18:49.032Z,14.50
2022-12-22T17:21:18.485Z,14.50
2022-12-22T17:23:49.901Z,14.50
2022-12-22T17:26:20.820Z,14.50
2022-12-22T17:28:49.011Z,14.50
2022-12-22T17:31:18.034Z,14.50
2022-12-22T17:33:46.239Z,14.60
2022-12-22T17:36:21.190Z,14.60
2022-12-22T17:38:50.632Z,14.60
2022-12-22T17:41:18.794Z,14.60
2022-12-22T17:43:47.488Z,14.70
2022-12-22T17:46:16.432Z,14.70
2022-12-22T17:48:44.676Z,14.80
2022-12-22T17:51:21.927Z,14.70
2022-12-22T17:53:51.571Z,14.70
2022-12-22T17:56:20.964Z,14.70
2022-12-22T17:58:49.252Z,14.70
2022-12-22T18:01:22.776Z,14.70
2022-12-22T18:03:51.038Z,14.70
2022-12-22T18:06:20.453Z,14.70
2022-12-22T18:08:48.812Z,14.70
2022-12-22T18:11:18.351Z,14.70
2022-12-22T18:13:46.501Z,14.70
2022-12-22T18:16:16.525Z,14.70
2022-12-22T18:18:44.846Z,14.70
2022-12-22T18:21:17.463Z,14.70
2022-12-22T18:23:49.943Z,14.70
2022-12-22T18:26:23.117Z,14.70
2022-12-22T18:28:51.663Z,14.70
2022-12-22T18:31:19.913Z,14.70
2022-12-22T18:33:48.116Z,14.80
2022-12-22T18:36:21.487Z,14.70
2022-12-22T18:38:49.635Z,14.70
2022-12-22T18:41:22.371Z,14.70
2022-12-22T18:43:50.627Z,14.70
2022-12-22T18:46:18.978Z,14.70
2022-12-22T18:48:48.110Z,14.70
2022-12-22T18:51:20.836Z,14.70
2022-12-22T18:53:49.141Z,14.70
2022-12-22T18:56:17.445Z,14.70
2022-12-22T18:58:47.096Z,14.70
2022-12-22T19:01:20.211Z,14.70
2022-12-22T19:03:48.463Z,14.70
2022-12-22T19:06:17.266Z,14.80
2022-12-22T19:08:47.191Z,14.80
2022-12-22T19:11:15.764Z,14.80
2022-12-22T19:13:46.978Z,14.80
2022-12-22T19:16:15.884Z,14.80
2022-12-22T19:18:44.306Z,14.80
2022-12-22T19:21:14.187Z,14.80
2022-12-22T19:23:42.430Z,14.80
2022-12-22T19:26:20.639Z,14.80
2022-12-22T19:28:50.382Z,14.80
2022-12-22T19:31:22.625Z,14.80
2022-12-22T19:33:50.971Z,14.70
2022-12-22T19:36:21.690Z,14.70
2022-12-22T19:38:50.959Z,14.70
2022-12-22T19:41:30.065Z,14.70
2022-12-22T19:43:59.563Z,14.70
2022-12-22T19:46:30.003Z,14.70
2022-12-22T19:48:58.427Z,14.60
2022-12-22T19:51:26.626Z,14.60
2022-12-22T19:53:54.859Z,14.60
2022-12-22T19:56:24.663Z,14.50
2022-12-22T19:58:52.839Z,14.50
2022-12-22T20:01:22.485Z,14.40
2022-12-22T20:03:50.863Z,14.40
2022-12-22T20:06:19.072Z,14.40
2022-12-22T20:08:47.217Z,14.40
2022-12-22T20:11:16.865Z,14.40
2022-12-22T20:13:45.259Z,14.30
2022-12-22T20:16:14.793Z,14.30
2022-12-22T20:18:46.230Z,14.30
2022-12-22T20:21:16.352Z,14.30
2022-12-22T20:23:45.721Z,14.30
2022-12-22T20:26:17.074Z,14.30
2022-12-22T20:28:45.235Z,14.30
2022-12-22T20:31:14.819Z,14.20
2022-12-22T20:33:44.308Z,14.20
2022-12-22T20:36:20.480Z,14.20
2022-12-22T20:38:48.999Z,14.20
2022-12-22T20:41:17.105Z,14.30
2022-12-22T20:43:45.917Z,14.20
2022-12-22T20:46:16.516Z,14.20
2022-12-22T20:48:48.020Z,14.20
2022-12-22T20:51:18.469Z,14.20
2022-12-22T20:53:46.988Z,14.20
2022-12-22T20:56:21.646Z,14.20
2022-12-22T20:58:50.047Z,14.20
2022-12-22T21:01:18.376Z,14.20
2022-12-22T21:04:06.804Z,14.20
2022-12-22T21:06:54.337Z,14.20
2022-12-22T21:09:42.769Z,14.30
2022-12-22T21:12:31.206Z,14.20
2022-12-22T21:15:20.681Z,14.30
2022-12-22T21:18:15.971Z,14.30
2022-12-22T21:21:05.967Z,14.30
2022-12-22T21:23:54.376Z,14.30
2022-12-22T21:26:46.331Z,14.30
2022-12-22T21:29:34.760Z,14.30
2022-12-22T21:32:23.284Z,14.30
2022-12-22T21:35:15.547Z,14.30
2022-12-22T21:38:05.334Z,14.30
2022-12-22T21:40:53.784Z,14.30
2022-12-22T21:43:42.222Z,14.30
2022-12-22T21:46:30.831Z,14.30
2022-12-22T21:49:20.287Z,14.30
2022-12-22T21:52:08.827Z,14.30
2022-12-22T21:54:58.755Z,14.30
2022-12-22T21:57:47.254Z,14.30
2022-12-22T22:00:35.955Z,14.30
2022-12-22T22:03:24.419Z,14.30
2022-12-22T22:06:12.857Z,14.30
2022-12-22T22:09:01.250Z,14.30
2022-12-22T22:12:08.308Z,14.30
2022-12-22T22:14:56.720Z,14.30
2022-12-22T22:17:45.514Z,14.30
2022-12-22T22:20:33.909Z,14.30
2022-12-22T22:23:22.350Z,14.30
2022-12-22T22:26:11.146Z,14.30
2022-12-22T22:29:01.001Z,14.30
2022-12-22T22:31:49.484Z,14.30
2022-12-22T22:34:38.029Z,14.30
2022-12-22T22:37:26.448Z,14.30
2022-12-22T22:40:15.847Z,14.30
2022-12-22T22:43:04.307Z,14.30
2022-12-22T22:45:54.063Z,14.30
2022-12-22T22:48:42.542Z,14.20
2022-12-22T22:51:31.215Z,14.20
2022-12-22T22:54:19.647Z,14.20
2022-12-22T22:57:08.050Z,14.30
2022-12-22T22:59:56.464Z,14.30
2022-12-22T23:02:46.519Z,14.20
2022-12-22T23:05:35.071Z,14.20
2022-12-22T23:08:23.450Z,14.20
2022-12-22T23:11:14.420Z,14.20
2022-12-22T23:14:02.784Z,14.20
2022-12-22T23:16:51.273Z,14.20
2022-12-22T23:19:41.021Z,14.20
2022-12-22T23:22:29.469Z,14.20
2022-12-22T23:25:18.059Z,14.20
2022-12-22T23:28:06.684Z,14.20
2022-12-22T23:30:55.110Z,14.20
2022-12-22T23:33:43.554Z,14.20
2022-12-22T23:36:33.345Z,14.20
2022-12-22T23:39:21.745Z,14.20
2022-12-22T23:42:10.135Z,14.20
2022-12-22T23:44:58.509Z,14.20
2022-12-22T23:47:46.993Z,14.20
2022-12-22T23:50:35.583Z,14.20
2022-12-22T23:53:25.377Z,14.20
2022-12-22T23:56:14.419Z,14.20
2022-12-22T23:59:06.359Z,14.20
